Historyczne dane pomiarowe

Dodano dane terminowe – wersja testowa.

Dane z okresu 1951-2019

Wersja bazy: 1.34 [2019-03-16, lista zmian], aktualizacja planowana na 2019-04-15

Dane meteo z obszaru Polski uzyskane na podstawie danych udostępnionych przez Instytut Meteorologii i Gospodarki Wodnej – Państwowy Instytut Badawczy.

 

Wybierz Datę:    

       

TemperaturaWilgotnośćWiatrCiśnienieOpadyŚniegCzas trwania zjawisk
 Stacja t tx tn tng RH VA  wxwx mslp ppp RRR   cm mm wxwxwxwxwxwxwx
1956-11-09 -2.5 -0.1 -4.0 -2.7 85.8- 4.3 0.7---- 0.0-- 3---------
1956-11-08 -1.5 4.3 -3.1 -5.0 91.3- 7.0 1.0---- 0.0-- 4---------
1956-11-07 0.4 2.7 -1.1 -1.8 83.5- 3.3 5.0---- 3.2------------
1956-11-06 1.8 3.4 0.6 -1.2 74.5- 3.0 7.3---- 0.0------------
1956-11-05 3.8 7.9 1.8 1.2 77.3- 4.3 7.3---- 0.0------------
1956-11-04 1.9 4.7 -1.9 -4.7 71.5- 5.7 4.3---- 0.0------------
1956-11-03 1.2 4.7 -0.3 -3.0 86.3- 3.7 1.3---- 0.0------------
1956-11-02 1.8 5.3 0.1 -0.8 76.3- 2.3 3.0---- 0.0------------
1956-11-01 2.0 2.5 -3.5 -5.3 94.0- 8.0 6.0---- 5.5------------
1956-10-31 -3.0 0.2 -7.9-10.1 87.0- 4.7 2.0---- 0.0------------
1956-10-30 -3.2 -0.4 -5.1 -1.3 91.8- 5.3 4.0---- 0.0------------
1956-10-29 0.5 4.9 -0.8 2.1 93.3- 8.0 4.7---- 1.5------------
1956-10-28 6.1 7.6 4.5 7.0 96.8- 8.0 4.3---- 4.8------------
1956-10-27 7.0 7.2 6.4 5.6 94.0- 8.0 4.7---- 11.8------------
1956-10-26 7.2 10.2 6.3 2.0 86.5- 8.0 1.7---- 0.1------------
1956-10-25 11.2 14.6 9.9 6.5 87.3- 7.0 3.3---- 0.0------------
1956-10-24 12.3 14.4 9.2 8.3 86.0- 7.7 4.0---- 0.0------------
1956-10-23 10.1 12.1 9.3 9.5 77.8- 8.0 4.0---- 0.0------------
1956-10-22 12.3 14.6 11.4 9.9 73.0- 7.0 6.7---- 0.0------------
1956-10-21 12.3 14.4 5.9 6.4 85.5- 7.7 4.3---- 0.0------------
1956-10-20 9.1 11.2 5.9 1.9 93.5- 6.3 2.7---- 0.4------------
1956-10-19 10.4 13.3 8.5 10.7 84.5- 7.7 4.7---- 0.0------------
1956-10-18 10.9 13.3 6.1 3.7 90.0- 8.0 3.7---- 0.1------------
1956-10-17 6.8 13.3 0.3 -2.2 77.0- 1.3 5.7---- 0.0------------
1956-10-16 5.6 12.4 0.7 -2.6 82.3- 4.3 0.0---- 0.0------------
1956-10-15 5.3 11.4 3.0 0.8 85.5- 1.0 3.3---- 0.0------------
1956-10-14 7.2 11.4 5.3 4.0 69.8- 0.3 7.7---- 0.0------------
1956-10-13 10.5 12.6 9.6 7.9 73.3- 7.3 7.7---- 11.0------------
1956-10-12 10.4 12.2 9.0 8.7 79.3- 8.0 7.7---- 0.0------------
1956-10-11 9.7 11.7 6.5 5.0 83.8- 8.0 4.0---- 0.0------------
1956-10-10 6.6 10.1 0.4 -2.6 69.3- 5.7 5.0---- 0.0------------
1956-10-09 6.5 11.4 3.7 1.9 86.3- 6.0 3.0---- 0.0------------
1956-10-08 6.1 9.2 4.1 2.2 83.5- 5.0 3.7---- 0.2------------
1956-10-07 7.3 10.2 5.4 6.4 83.0- 7.3 7.3---- 0.8------------
1956-10-06 7.6 9.3 3.4 -0.3 86.8- 8.0 2.3---- 1.8------------
1956-10-05 7.0 11.4 4.4 3.1 91.0- 5.0 2.7---- 0.5------------
1956-10-04 8.8 14.3 4.4 1.3 92.3- 5.0 4.0---- 0.7------------
1956-10-03 11.5 15.8 8.4 10.5 91.5- 4.7 3.7---- 0.0------------
1956-10-02 15.3 22.7 9.7 5.0 85.8- 7.7 2.7---- 20.5------------
1956-10-01 12.1 18.6 5.2 1.5 92.5- 1.7 2.3---- 2.5------------
1956-09-30 11.6 18.4 8.3 4.2 81.5- 2.3 4.0---- 0.0------------
1956-09-29 13.5 17.9 11.3 10.9 77.0- 2.3 6.7---- 0.0------------
1956-09-28 15.9 18.6 13.9 8.3 79.8- 6.7 5.3---- 0.0------------
1956-09-27 16.0 21.4 8.1 3.1 76.0- 2.7 2.7---- 0.4------------
1956-09-26 12.6 22.2 4.2 -0.1 76.5- 0.0 2.7---- 0.0------------
1956-09-25 9.0 18.3 0.9 -3.0 79.0- 0.0 1.3---- 0.0------------
1956-09-24 6.8 15.4 1.7 -1.0 77.5- 0.0 1.7---- 0.0------------
1956-09-23 8.5 16.7 4.1 0.6 84.8- 2.7 1.7---- 0.0------------
1956-09-22 10.6 18.3 5.5 1.1 84.0- 0.0 0.7---- 0.0------------
1956-09-21 9.7 17.4 4.0 0.2 80.3- 0.0 0.0---- 0.0------------
1956-09-20 9.8 15.8 5.5 1.8 80.3- 4.0 1.7---- 0.0------------
1956-09-19 9.3 16.6 3.8 1.2 82.5- 1.3 0.7---- 0.0------------
1956-09-18 9.6 14.7 7.0 5.4 83.3- 2.7 3.3---- 0.0------------
1956-09-17 9.3 14.1 6.3 4.3 77.0- 6.0 4.3---- 4.5------------
1956-09-16 10.3 14.9 5.7 2.0 81.0- 5.7 6.7---- 0.2------------
1956-09-15 11.2 16.1 8.1 3.5 76.3- 4.0 6.3---- 0.0------------
1956-09-14 11.4 17.2 5.8 1.6 85.5- 2.7 0.7---- 0.4------------
1956-09-13 8.1 12.0 6.7 5.1 89.8- 3.0 4.3---- 0.5------------
1956-09-12 11.7 15.4 8.8 11.2 81.8- 6.7 5.3---- 0.8------------
1956-09-11 12.8 18.7 10.8 7.7 94.5- 7.3 1.3---- 26.7------------
2198.7 ms

 

Źródłem pochodzenia danych jest Instytut Meteorologii i Gospodarki Wodnej – Państwowy Instytut Badawczy. Dane Instytutu Meteorologii i Gospodarki Wodnej – Państwowego Instytutu Badawczego zostały przetworzone.

Dane źródłowe można odnaleźć na stronie https://dane.imgw.pl